LXGB/GIB METAR and TAF weather

Enter ICAO airport designator
Station Type Date Time Source
LXGB METAR 2023/01/29 18:50 UTC NOAA

LXGB 291850Z 06010KT 9999 FEW022 BKN026 BKN050 13/07 Q1022 TEMPO 7000 SHRA SCT022TCU


Station Type Date Time Source
LXGB Decoded METAR 2023/01/29 18:50 UTC NOAA

Gibraltar, Gibraltar (LXGB) 36-09N 005-21W 0M
Jan 29, 2023 - 01:50 PM EST / 2023.01.29 1850 UTC
Wind: from the ENE (060 degrees) at 12 MPH (10 KT):0
Visibility: greater than 7 mile(s):0
Sky conditions: mostly cloudy
Weather: Towering cumulus clouds observed
Temperature: 55 F (13 C)
Dew Point: 44 F (7 C)
Relative Humidity: 66%
Pressure (altimeter): 30.18 in. Hg (1022 hPa)
ob: LXGB 291850Z 06010KT 9999 FEW022 BKN026 BKN050 13/07 Q1022 TEMPO 7000 SHRA SCT022TCU
cycle: 19

Station Type Date Time Source
LXGB TAF 2022/08/19 18:21 UTC NOAA

TAF TAF LXGB 192017Z 1918/2022 CNL

Example: see airport list